createdAt,value
2022-11-23T00:00:19.357Z,57.50
2022-11-23T00:05:21.451Z,57.45
2022-11-23T00:10:23.202Z,57.55
2022-11-23T00:15:24.845Z,57.08
2022-11-23T00:20:26.760Z,57.48
2022-11-23T00:25:29.788Z,57.22
2022-11-23T00:30:31.626Z,57.47
2022-11-23T00:35:33.421Z,57.23
2022-11-23T00:40:37.528Z,57.40
2022-11-23T00:45:40.645Z,57.34
2022-11-23T00:50:42.261Z,57.56
2022-11-23T00:55:54.565Z,57.43
2022-11-23T01:01:12.611Z,57.34
2022-11-23T01:06:20.065Z,57.34
2022-11-23T01:11:23.119Z,57.22
2022-11-23T01:16:28.299Z,57.40
2022-11-23T01:21:31.326Z,57.24
2022-11-23T01:26:34.987Z,57.53
2022-11-23T01:31:40.587Z,57.51
2022-11-23T01:36:48.881Z,57.22
2022-11-23T01:41:53.647Z,57.43
2022-11-23T01:46:58.778Z,57.44
2022-11-23T01:52:07.003Z,57.32
2022-11-23T01:57:12.473Z,57.60
2022-11-23T02:02:17.666Z,57.67
2022-11-23T02:07:20.683Z,57.51
2022-11-23T02:12:22.457Z,57.91
2022-11-23T02:17:24.095Z,57.31
2022-11-23T02:22:44.795Z,57.49
2022-11-23T02:27:47.231Z,57.72
2022-11-23T02:32:49.189Z,57.91
2022-11-23T02:37:53.788Z,57.72
2022-11-23T02:42:55.587Z,57.55
2022-11-23T02:47:57.297Z,57.58
2022-11-23T02:52:59.161Z,57.63
2022-11-23T02:58:00.845Z,57.57
2022-11-23T03:03:04.458Z,57.67
2022-11-23T03:08:07.872Z,57.25
2022-11-23T03:13:09.771Z,57.42
2022-11-23T03:18:13.689Z,57.42
2022-11-23T03:23:15.624Z,57.55
2022-11-23T03:28:19.216Z,57.36
2022-11-23T03:33:21.351Z,57.15
2022-11-23T03:38:23.753Z,57.41
2022-11-23T03:43:26.892Z,57.46
2022-11-23T03:48:29.864Z,57.28
2022-11-23T03:53:32.461Z,57.57
2022-11-23T03:58:35.637Z,57.36
2022-11-23T04:03:41.440Z,57.56
2022-11-23T04:08:48.699Z,57.74
2022-11-23T04:13:57.962Z,57.39
2022-11-23T04:19:00.067Z,57.50
2022-11-23T04:24:02.201Z,57.53
2022-11-23T04:29:07.733Z,57.42
2022-11-23T04:34:11.491Z,57.28
2022-11-23T04:39:14.291Z,57.52
2022-11-23T04:44:35.448Z,57.59
2022-11-23T04:49:40.172Z,57.24
2022-11-23T04:54:42.911Z,57.66
2022-11-23T04:59:44.772Z,57.27
2022-11-23T05:04:46.719Z,57.85
2022-11-23T05:09:50.766Z,57.47
2022-11-23T05:14:55.096Z,57.57
2022-11-23T05:20:03.892Z,57.56
2022-11-23T05:25:09.198Z,57.60
2022-11-23T05:30:13.587Z,57.38
2022-11-23T05:35:16.728Z,57.66
2022-11-23T05:40:19.878Z,57.53
2022-11-23T05:45:24.222Z,57.81
2022-11-23T05:50:28.718Z,57.54
2022-11-23T05:55:49.258Z,57.71
2022-11-23T06:00:52.870Z,57.63
2022-11-23T06:05:54.594Z,57.85
2022-11-23T06:11:03.476Z,57.68
2022-11-23T06:16:06.174Z,57.38
2022-11-23T06:21:18.498Z,57.51
2022-11-23T06:26:21.916Z,57.58
2022-11-23T06:31:23.885Z,57.54
2022-11-23T06:36:25.541Z,57.51
2022-11-23T06:41:32.389Z,57.74
2022-11-23T06:46:35.964Z,57.42
2022-11-23T06:51:37.760Z,57.87
2022-11-23T06:56:40.541Z,57.57
2022-11-23T07:01:43.987Z,57.72
2022-11-23T07:06:47.499Z,57.58
2022-11-23T07:12:00.510Z,57.59
2022-11-23T07:17:02.347Z,57.71
2022-11-23T07:22:04.105Z,57.51
2022-11-23T07:27:06.057Z,57.81
2022-11-23T07:32:08.942Z,57.44
2022-11-23T07:37:11.476Z,57.75
2022-11-23T07:47:37.374Z,57.92
2022-11-23T07:52:40.492Z,57.71
2022-11-23T07:57:42.124Z,57.93
2022-11-23T08:03:04.192Z,57.99
2022-11-23T08:08:06.062Z,57.81
2022-11-23T08:13:07.928Z,58.01
2022-11-23T08:18:10.038Z,57.79
2022-11-23T08:23:11.801Z,58.11
2022-11-23T08:28:13.472Z,58.14
2022-11-23T08:33:15.773Z,57.96
2022-11-23T08:38:17.481Z,58.12
2022-11-23T08:43:19.418Z,58.20
2022-11-23T08:48:21.106Z,58.28
2022-11-23T08:53:22.958Z,57.81
2022-11-23T08:58:24.740Z,58.18
2022-11-23T09:03:27.993Z,58.17
2022-11-23T09:08:29.786Z,58.21
2022-11-23T09:13:32.008Z,58.13
2022-11-23T09:18:35.623Z,57.78
2022-11-23T09:23:37.227Z,57.77
2022-11-23T09:28:44.373Z,58.09
2022-11-23T09:33:46.469Z,58.21
2022-11-23T09:38:57.124Z,58.15
2022-11-23T09:44:04.829Z,58.21
2022-11-23T09:49:18.793Z,58.25
2022-11-23T09:54:27.710Z,58.35
2022-11-23T09:59:30.054Z,58.18
2022-11-23T10:04:35.599Z,58.32
2022-11-23T10:09:45.806Z,58.21
2022-11-23T10:15:03.148Z,58.30
2022-11-23T10:20:20.563Z,58.17
2022-11-23T10:25:23.772Z,57.98
2022-11-23T10:30:25.782Z,58.05
2022-11-23T10:35:35.773Z,57.93
2022-11-23T10:40:40.888Z,57.92
2022-11-23T10:45:42.739Z,57.96
2022-11-23T10:50:44.991Z,57.80
2022-11-23T10:55:54.936Z,57.87
2022-11-23T11:01:05.603Z,57.81
2022-11-23T11:06:09.463Z,57.72
2022-11-23T11:11:26.440Z,57.68
2022-11-23T11:16:47.768Z,57.85
2022-11-23T11:21:49.617Z,57.84
2022-11-23T11:27:03.486Z,57.77
2022-11-23T11:32:34.767Z,57.41
2022-11-23T11:37:45.878Z,57.54
2022-11-23T11:43:03.767Z,57.48
2022-11-23T11:48:12.770Z,57.35
2022-11-23T11:53:23.309Z,57.37
2022-11-23T11:58:26.432Z,57.38
2022-11-23T12:03:43.011Z,57.48
2022-11-23T12:08:55.666Z,57.08
2022-11-23T12:14:02.031Z,57.29
2022-11-23T12:19:19.022Z,57.16
2022-11-23T12:24:40.744Z,56.89
2022-11-23T12:30:11.546Z,57.09
2022-11-23T12:35:26.411Z,56.88
2022-11-23T12:40:50.090Z,56.49
2022-11-23T12:46:02.150Z,56.62
2022-11-23T12:51:58.521Z,56.83
2022-11-23T12:57:10.595Z,56.71
2022-11-23T13:02:58.800Z,57.01
2022-11-23T13:08:29.415Z,56.90
2022-11-23T13:14:02.444Z,56.57
2022-11-23T13:19:10.155Z,56.57
2022-11-23T13:24:28.862Z,56.25
2022-11-23T13:29:50.702Z,56.50
2022-11-23T13:34:52.372Z,56.28
2022-11-23T13:39:57.630Z,56.21
2022-11-23T13:45:21.267Z,56.36
2022-11-23T13:50:23.028Z,56.30
2022-11-23T13:55:35.255Z,56.08
2022-11-23T14:00:51.765Z,55.96
2022-11-23T14:05:56.919Z,55.70
2022-11-23T14:11:00.751Z,55.57
2022-11-23T14:16:04.903Z,55.87
2022-11-23T14:21:16.079Z,55.66
2022-11-23T14:26:29.502Z,55.23
2022-11-23T14:31:34.853Z,54.95
2022-11-23T14:37:09.844Z,54.83
2022-11-23T14:42:15.238Z,54.67
2022-11-23T14:47:26.606Z,54.67
2022-11-23T14:52:32.443Z,54.23
2022-11-23T14:57:44.185Z,54.20
2022-11-23T15:02:45.925Z,53.80
2022-11-23T15:08:12.137Z,53.71
2022-11-23T15:13:20.316Z,53.66
2022-11-23T15:18:39.106Z,53.69
2022-11-23T15:23:52.676Z,54.01
2022-11-23T15:28:54.410Z,54.02
2022-11-23T15:34:12.026Z,53.83
2022-11-23T15:39:20.029Z,54.29
2022-11-23T15:44:26.092Z,54.49
2022-11-23T15:49:29.488Z,54.46
2022-11-23T15:54:36.434Z,54.37
2022-11-23T15:59:50.328Z,54.76
2022-11-23T16:05:15.729Z,54.69
2022-11-23T16:10:20.922Z,55.18
2022-11-23T16:15:49.099Z,55.04
2022-11-23T16:21:05.159Z,54.98
2022-11-23T16:26:07.015Z,55.03
2022-11-23T16:31:36.317Z,55.15
2022-11-23T16:36:37.972Z,54.89
2022-11-23T16:41:40.407Z,55.21
2022-11-23T16:46:43.900Z,55.38
2022-11-23T16:51:56.162Z,55.33
2022-11-23T16:56:58.600Z,55.20
2022-11-23T17:02:00.210Z,55.35
2022-11-23T17:07:01.997Z,55.45
2022-11-23T17:12:08.447Z,55.50
2022-11-23T17:17:16.225Z,55.54
2022-11-23T17:22:20.252Z,55.79
2022-11-23T17:27:25.512Z,55.66
2022-11-23T17:32:27.956Z,55.77
2022-11-23T17:37:29.749Z,55.75
2022-11-23T17:42:31.468Z,56.02
2022-11-23T17:47:33.094Z,55.52
2022-11-23T17:52:35.600Z,55.83
2022-11-23T17:57:37.348Z,55.98
2022-11-23T18:02:38.894Z,55.72
2022-11-23T18:07:41.509Z,55.76
2022-11-23T18:12:44.785Z,56.05
2022-11-23T18:17:46.816Z,55.93
2022-11-23T18:22:48.599Z,56.01
2022-11-23T18:27:50.915Z,55.77
2022-11-23T18:32:52.515Z,56.03
2022-11-23T18:37:54.157Z,55.98
2022-11-23T18:42:58.280Z,55.93
2022-11-23T18:47:59.961Z,55.69
2022-11-23T18:53:02.858Z,56.11
2022-11-23T18:58:05.587Z,55.97
2022-11-23T19:03:10.383Z,56.16
2022-11-23T19:08:13.106Z,56.13
2022-11-23T19:13:14.866Z,56.20
2022-11-23T19:18:18.820Z,56.20
2022-11-23T19:23:21.898Z,56.18
2022-11-23T19:28:24.291Z,56.10
2022-11-23T19:33:26.045Z,56.35
2022-11-23T19:38:27.728Z,56.14
2022-11-23T19:43:31.848Z,56.32
2022-11-23T19:48:34.586Z,56.31
2022-11-23T19:53:38.387Z,56.25
2022-11-23T19:58:42.840Z,56.26
2022-11-23T20:03:48.262Z,56.29
2022-11-23T20:09:00.002Z,56.44
2022-11-23T20:14:01.805Z,56.67
2022-11-23T20:19:07.948Z,56.31
2022-11-23T20:24:14.248Z,56.64
2022-11-23T20:29:16.463Z,56.66
2022-11-23T20:34:21.315Z,56.56
2022-11-23T20:39:27.070Z,56.55
2022-11-23T20:44:33.900Z,56.74
2022-11-23T20:49:36.474Z,56.80
2022-11-23T20:54:38.613Z,56.76
2022-11-23T20:59:41.979Z,56.86
2022-11-23T21:04:47.762Z,56.80
2022-11-23T21:09:49.453Z,56.78
2022-11-23T21:14:51.078Z,56.59
2022-11-23T21:19:52.700Z,56.70
2022-11-23T21:24:54.324Z,56.79
2022-11-23T21:29:55.981Z,56.73
2022-11-23T21:34:59.301Z,56.88
2022-11-23T21:40:01.101Z,56.96
2022-11-23T21:45:02.902Z,56.81
2022-11-23T21:50:05.752Z,56.77
2022-11-23T21:55:08.080Z,56.57
2022-11-23T22:00:10.272Z,56.72
2022-11-23T22:05:13.799Z,56.58
2022-11-23T22:10:16.677Z,56.59
2022-11-23T22:15:18.305Z,56.63
2022-11-23T22:20:20.602Z,56.46
2022-11-23T22:25:22.254Z,56.63
2022-11-23T22:30:24.229Z,56.44
2022-11-23T22:35:27.179Z,56.46
2022-11-23T22:40:32.720Z,56.44
2022-11-23T22:45:34.507Z,56.35
2022-11-23T22:50:37.327Z,56.56
2022-11-23T22:55:39.237Z,56.48
2022-11-23T23:00:42.046Z,56.40
2022-11-23T23:05:54.030Z,56.44
2022-11-23T23:10:57.435Z,56.66
2022-11-23T23:16:04.525Z,56.22
2022-11-23T23:21:15.751Z,56.39
2022-11-23T23:26:20.636Z,56.38
2022-11-23T23:31:23.236Z,56.29
2022-11-23T23:36:24.997Z,56.29
2022-11-23T23:41:27.224Z,56.39
2022-11-23T23:46:29.265Z,56.64
2022-11-23T23:51:30.969Z,56.88
2022-11-23T23:56:32.996Z,56.91
